Sault Ste Marie Airport
CYAM : now visible

Airfield :











YOU CAN JOIN US ON...

 
LOGIN :

Register | Disclaimer

   EN    FR    IT 

 









Legend :    VFR   Marginal VFR   IFR   Intensive IFR   Very Intensive IFR
Visi :
Ceiling :
>= 8 km
>= 3000ft
5 to 8 km
1000 to 3000 ft
1500m to 5 km
500 to 1000 ft
800 to 1500m
200 to 500 ft
< 800m
< 200 ft
Symbols :   Thunderstorms  Fog  Heavy snow  Heavy precipitations  Wind > 20 kt






- Airport Elevation : 630 ft
- IATA code : YAM


CYAM - Sault Ste Marie

CURRENT METAR :
  • 141700Z 25010KT 15SM -SHSN FEW011 FEW017 OVC033 M02/M06 A3003 RMK CF1CU1CU7 CF TR SLP182

EXPIRED METARs :
  • 141600Z 25013KT 15SM -SHSN FEW011 FEW015 OVC038 M02/M06 A3003 RMK CF1CU2CU6 CF TR SLP181

TAF TAF CYAM
Valid from the 14 at 14:00 until the 15 at 02:00 UTC


141339Z 1414/1502 22008KT P6SM -SHSN FEW020 BKN030
TEMPO 1414/1420 5SM -SHSN BKN020 OVC030
BECMG 1414/1416 24012KT
FM142000 24012KT P6SM BKN030 OVC100
FM150000 24012G22KT P6SM SCT030 BKN100 RMK NXT FCST BY 142000Z



MET'MAP, your aeronautical weather chart ! - Copyright ORBIFLY December 2007 - Disclaimer

ORBIFLY MET'MAP TEAM :

Programming & Development : Alexandra Zaïnal
Concept & Development : Baudouin d'Aumeries
Co-Development & Prog : Marc-Olivier Méhu
Technical & hardware support : Manuel Goepfert

Contact : metmap@orbifly.com




SOURCES & CREDITS :

   NOAA       Earth
Advisory